This is the latest recevied weather packets stored in our database for station/object DL1SEW-6. If no packets are shown the sender has not sent any weather packets the latest 10 day(s).
| Time | Temp. | Humidity | Pressure | Rain* | Wind** | Luminosity | Snow |
|---|---|---|---|---|---|---|---|
| 1777638298 | 21.67° C | 23% | 1025 hPa | 0 mm | - | 890 W/m² | - |
| 1777637398 | 21.11° C | 25% | 1025 hPa | 0 mm | - | 903 W/m² | - |
| 1777636496 | 20.56° C | 23% | 1025 hPa | 0 mm | - | 908 W/m² | - |
| 1777635596 | 20° C | 22% | 1025 hPa | 0 mm | - | 915 W/m² | - |
| 1777634696 | 20° C | 21% | 1025 hPa | 0 mm | - | 917 W/m² | - |
| 1777633802 | 19.44° C | 22% | 1025.2 hPa | 0 mm | - | 914 W/m² | - |
| 1777632901 | 19.44° C | 23% | 1025.5 hPa | 0 mm | - | 908 W/m² | - |
| 1777632001 | 19.44° C | 24% | 1025.6 hPa | 0 mm | - | 897 W/m² | - |
| 1777631100 | 19.44° C | 23% | 1025.5 hPa | 0 mm | - | 888 W/m² | - |
| 1777630200 | 18.89° C | 21% | 1025.7 hPa | 0 mm | - | 872 W/m² | - |
| 1777629302 | 18.89° C | 23% | 1025.6 hPa | 0 mm | - | 854 W/m² | - |
| 1777628400 | 18.33° C | 23% | 1025.5 hPa | 0 mm | - | 835 W/m² | - |
| 1777627501 | 17.78° C | 22% | 1025.6 hPa | 0 mm | - | 808 W/m² | - |
| 1777626601 | 17.22° C | 24% | 1025.5 hPa | 0 mm | - | 782 W/m² | - |
| 1777625699 | 16.67° C | 28% | 1025.5 hPa | 0 mm | - | 752 W/m² | - |
| 1777624799 | 16.67° C | 30% | 1025.5 hPa | 0 mm | - | 722 W/m² | - |
| 1777623901 | 15.56° C | 29% | 1025.4 hPa | 0 mm | - | 685 W/m² | - |
| 1777622999 | 15° C | 30% | 1025.4 hPa | 0 mm | - | 648 W/m² | - |
| 1777622099 | 13.89° C | 32% | 1025.3 hPa | 0 mm | - | 608 W/m² | - |
| 1777621199 | 13.33° C | 37% | 1025.3 hPa | 0 mm | - | 565 W/m² | - |
| 1777620298 | 12.22° C | 40% | 1025.1 hPa | 0 mm | - | 522 W/m² | - |
| 1777618498 | 11.11° C | 41% | 1024.9 hPa | 0 mm | - | 435 W/m² | - |
| 1777617599 | 10.56° C | 42% | 1024.6 hPa | 0 mm | - | 391 W/m² | - |
| 1777616698 | 10.56° C | 41% | 1024.5 hPa | 0 mm | - | 346 W/m² | - |
| 1777615799 | 9.44° C | 40% | 1024.4 hPa | 0 mm | - | 301 W/m² | - |
* Rain latest hour (hover to see other rain measurements)
** Current wind speed in m/s (hover to see current wind gust speed)